sensor_id;sensor_type;location;lat;lon;timestamp;P1;durP1;ratioP1;P2;durP2;ratioP2
3712;SDS011;1872;51.406;6.856;2023-09-19T00:00:45;6.63;;;4.03;;
3712;SDS011;1872;51.406;6.856;2023-09-19T00:03:12;5.27;;;3.53;;
3712;SDS011;1872;51.406;6.856;2023-09-19T00:05:38;4.10;;;2.80;;
3712;SDS011;1872;51.406;6.856;2023-09-19T00:08:04;5.77;;;3.60;;
3712;SDS011;1872;51.406;6.856;2023-09-19T00:10:30;6.20;;;3.33;;
3712;SDS011;1872;51.406;6.856;2023-09-19T00:12:59;6.40;;;3.40;;
3712;SDS011;1872;51.406;6.856;2023-09-19T00:15:30;6.80;;;3.37;;
3712;SDS011;1872;51.406;6.856;2023-09-19T00:18:00;6.07;;;3.00;;
3712;SDS011;1872;51.406;6.856;2023-09-19T00:20:26;3.43;;;3.13;;
3712;SDS011;1872;51.406;6.856;2023-09-19T00:22:51;7.07;;;3.50;;
3712;SDS011;1872;51.406;6.856;2023-09-19T00:25:18;3.90;;;3.37;;
3712;SDS011;1872;51.406;6.856;2023-09-19T00:27:45;17.10;;;4.77;;
3712;SDS011;1872;51.406;6.856;2023-09-19T00:30:16;8.63;;;4.47;;
3712;SDS011;1872;51.406;6.856;2023-09-19T00:32:45;6.07;;;3.30;;
3712;SDS011;1872;51.406;6.856;2023-09-19T00:35:12;6.13;;;3.17;;
3712;SDS011;1872;51.406;6.856;2023-09-19T00:37:40;4.40;;;2.73;;
3712;SDS011;1872;51.406;6.856;2023-09-19T00:40:09;5.80;;;3.40;;
3712;SDS011;1872;51.406;6.856;2023-09-19T00:42:40;7.30;;;3.40;;
3712;SDS011;1872;51.406;6.856;2023-09-19T00:45:07;4.00;;;3.50;;
3712;SDS011;1872;51.406;6.856;2023-09-19T00:47:36;7.60;;;3.43;;
3712;SDS011;1872;51.406;6.856;2023-09-19T00:50:03;7.17;;;3.23;;
3712;SDS011;1872;51.406;6.856;2023-09-19T00:52:32;6.80;;;3.20;;
3712;SDS011;1872;51.406;6.856;2023-09-19T00:54:58;6.77;;;3.87;;
3712;SDS011;1872;51.406;6.856;2023-09-19T00:57:25;9.87;;;3.90;;
3712;SDS011;1872;51.406;6.856;2023-09-19T00:59:50;8.07;;;3.90;;
3712;SDS011;1872;51.406;6.856;2023-09-19T01:02:19;5.10;;;3.20;;
3712;SDS011;1872;51.406;6.856;2023-09-19T01:04:47;5.57;;;3.30;;
3712;SDS011;1872;51.406;6.856;2023-09-19T01:07:12;5.90;;;3.57;;
3712;SDS011;1872;51.406;6.856;2023-09-19T01:09:41;4.13;;;3.60;;
3712;SDS011;1872;51.406;6.856;2023-09-19T01:12:07;5.83;;;3.63;;
3712;SDS011;1872;51.406;6.856;2023-09-19T01:15:21;7.20;;;3.40;;
3712;SDS011;1872;51.406;6.856;2023-09-19T01:17:31;7.47;;;3.03;;
3712;SDS011;1872;51.406;6.856;2023-09-19T01:31:01;8.47;;;3.77;;
3712;SDS011;1872;51.406;6.856;2023-09-19T01:33:28;5.20;;;3.43;;
3712;SDS011;1872;51.406;6.856;2023-09-19T01:36:16;9.00;;;3.90;;
3712;SDS011;1872;51.406;6.856;2023-09-19T01:38:42;9.33;;;3.50;;
3712;SDS011;1872;51.406;6.856;2023-09-19T01:41:09;6.27;;;3.47;;
3712;SDS011;1872;51.406;6.856;2023-09-19T01:43:38;8.37;;;3.73;;
3712;SDS011;1872;51.406;6.856;2023-09-19T01:49:01;5.47;;;3.10;;
3712;SDS011;1872;51.406;6.856;2023-09-19T01:51:44;7.00;;;3.63;;
3712;SDS011;1872;51.406;6.856;2023-09-19T01:54:19;5.73;;;3.17;;
3712;SDS011;1872;51.406;6.856;2023-09-19T01:56:57;8.00;;;3.10;;
3712;SDS011;1872;51.406;6.856;2023-09-19T01:59:31;7.73;;;3.10;;
3712;SDS011;1872;51.406;6.856;2023-09-19T02:02:01;7.70;;;3.50;;
3712;SDS011;1872;51.406;6.856;2023-09-19T02:04:28;4.87;;;3.40;;
3712;SDS011;1872;51.406;6.856;2023-09-19T02:06:54;6.10;;;3.77;;
3712;SDS011;1872;51.406;6.856;2023-09-19T02:09:20;6.67;;;3.20;;
3712;SDS011;1872;51.406;6.856;2023-09-19T02:11:46;8.10;;;3.60;;
3712;SDS011;1872;51.406;6.856;2023-09-19T02:14:12;5.30;;;3.43;;
3712;SDS011;1872;51.406;6.856;2023-09-19T02:16:38;4.93;;;3.20;;
3712;SDS011;1872;51.406;6.856;2023-09-19T02:19:04;7.23;;;3.37;;
3712;SDS011;1872;51.406;6.856;2023-09-19T02:21:31;6.37;;;3.47;;
3712;SDS011;1872;51.406;6.856;2023-09-19T02:23:57;5.40;;;3.27;;
3712;SDS011;1872;51.406;6.856;2023-09-19T02:26:23;7.27;;;3.60;;
3712;SDS011;1872;51.406;6.856;2023-09-19T02:28:49;7.50;;;3.93;;
3712;SDS011;1872;51.406;6.856;2023-09-19T02:31:15;9.63;;;3.87;;
3712;SDS011;1872;51.406;6.856;2023-09-19T02:33:41;5.30;;;3.00;;
3712;SDS011;1872;51.406;6.856;2023-09-19T02:36:08;3.20;;;2.60;;
3712;SDS011;1872;51.406;6.856;2023-09-19T02:38:34;6.47;;;3.30;;
3712;SDS011;1872;51.406;6.856;2023-09-19T02:41:00;6.60;;;3.50;;
3712;SDS011;1872;51.406;6.856;2023-09-19T02:43:26;5.13;;;3.13;;
3712;SDS011;1872;51.406;6.856;2023-09-19T02:45:52;8.23;;;4.00;;
3712;SDS011;1872;51.406;6.856;2023-09-19T02:48:22;6.40;;;3.80;;
3712;SDS011;1872;51.406;6.856;2023-09-19T02:50:51;7.63;;;3.40;;
3712;SDS011;1872;51.406;6.856;2023-09-19T02:53:17;9.97;;;3.50;;
3712;SDS011;1872;51.406;6.856;2023-09-19T02:55:44;6.80;;;3.13;;
3712;SDS011;1872;51.406;6.856;2023-09-19T02:58:12;10.27;;;4.20;;
3712;SDS011;1872;51.406;6.856;2023-09-19T03:00:39;9.00;;;3.77;;
3712;SDS011;1872;51.406;6.856;2023-09-19T03:03:07;7.20;;;3.20;;
3712;SDS011;1872;51.406;6.856;2023-09-19T03:05:33;7.50;;;2.80;;
3712;SDS011;1872;51.406;6.856;2023-09-19T03:08:00;4.63;;;2.83;;
3712;SDS011;1872;51.406;6.856;2023-09-19T03:10:28;5.20;;;2.90;;
3712;SDS011;1872;51.406;6.856;2023-09-19T03:12:55;11.20;;;4.63;;
3712;SDS011;1872;51.406;6.856;2023-09-19T03:15:20;4.17;;;2.90;;
3712;SDS011;1872;51.406;6.856;2023-09-19T03:17:47;5.23;;;2.80;;
3712;SDS011;1872;51.406;6.856;2023-09-19T03:20:13;6.80;;;3.17;;
3712;SDS011;1872;51.406;6.856;2023-09-19T03:22:45;5.53;;;3.40;;
3712;SDS011;1872;51.406;6.856;2023-09-19T03:25:13;6.47;;;3.13;;
3712;SDS011;1872;51.406;6.856;2023-09-19T03:27:39;6.83;;;3.63;;
3712;SDS011;1872;51.406;6.856;2023-09-19T03:30:05;6.67;;;2.70;;
3712;SDS011;1872;51.406;6.856;2023-09-19T03:32:37;6.10;;;3.20;;
3712;SDS011;1872;51.406;6.856;2023-09-19T03:35:08;3.77;;;3.20;;
3712;SDS011;1872;51.406;6.856;2023-09-19T03:37:40;13.20;;;3.47;;
3712;SDS011;1872;51.406;6.856;2023-09-19T03:40:07;6.03;;;2.87;;
3712;SDS011;1872;51.406;6.856;2023-09-19T03:42:37;6.80;;;3.20;;
3712;SDS011;1872;51.406;6.856;2023-09-19T03:45:07;6.80;;;3.07;;
3712;SDS011;1872;51.406;6.856;2023-09-19T03:47:37;4.70;;;3.17;;
3712;SDS011;1872;51.406;6.856;2023-09-19T03:50:04;4.23;;;3.20;;
3712;SDS011;1872;51.406;6.856;2023-09-19T03:52:30;6.63;;;3.47;;
3712;SDS011;1872;51.406;6.856;2023-09-19T03:54:56;7.93;;;3.50;;
3712;SDS011;1872;51.406;6.856;2023-09-19T03:57:21;6.37;;;3.53;;
3712;SDS011;1872;51.406;6.856;2023-09-19T03:59:47;6.37;;;3.57;;
3712;SDS011;1872;51.406;6.856;2023-09-19T04:02:13;6.53;;;3.30;;
3712;SDS011;1872;51.406;6.856;2023-09-19T04:04:50;7.80;;;3.33;;
3712;SDS011;1872;51.406;6.856;2023-09-19T04:07:17;5.40;;;3.27;;
3712;SDS011;1872;51.406;6.856;2023-09-19T04:09:44;10.33;;;5.33;;
3712;SDS011;1872;51.406;6.856;2023-09-19T04:12:11;7.50;;;3.57;;
3712;SDS011;1872;51.406;6.856;2023-09-19T04:14:37;6.80;;;3.43;;
3712;SDS011;1872;51.406;6.856;2023-09-19T04:17:03;4.00;;;2.60;;
3712;SDS011;1872;51.406;6.856;2023-09-19T04:19:30;8.60;;;3.40;;
3712;SDS011;1872;51.406;6.856;2023-09-19T04:21:56;6.40;;;3.40;;
3712;SDS011;1872;51.406;6.856;2023-09-19T04:24:22;6.87;;;3.70;;
3712;SDS011;1872;51.406;6.856;2023-09-19T04:26:47;11.00;;;3.80;;
3712;SDS011;1872;51.406;6.856;2023-09-19T04:29:13;6.23;;;2.67;;
3712;SDS011;1872;51.406;6.856;2023-09-19T04:31:39;11.00;;;3.43;;
3712;SDS011;1872;51.406;6.856;2023-09-19T04:34:05;8.50;;;3.30;;
3712;SDS011;1872;51.406;6.856;2023-09-19T04:36:31;6.50;;;3.17;;
3712;SDS011;1872;51.406;6.856;2023-09-19T04:38:57;10.10;;;3.00;;
3712;SDS011;1872;51.406;6.856;2023-09-19T04:41:22;9.03;;;3.17;;
3712;SDS011;1872;51.406;6.856;2023-09-19T04:43:49;9.53;;;4.20;;
3712;SDS011;1872;51.406;6.856;2023-09-19T04:46:15;4.97;;;3.03;;
3712;SDS011;1872;51.406;6.856;2023-09-19T04:48:42;5.73;;;3.60;;
3712;SDS011;1872;51.406;6.856;2023-09-19T04:51:08;9.77;;;3.60;;
3712;SDS011;1872;51.406;6.856;2023-09-19T04:53:33;5.83;;;3.73;;
3712;SDS011;1872;51.406;6.856;2023-09-19T04:55:59;9.53;;;3.40;;
3712;SDS011;1872;51.406;6.856;2023-09-19T04:58:25;7.70;;;3.23;;
3712;SDS011;1872;51.406;6.856;2023-09-19T05:00:50;9.00;;;3.40;;
3712;SDS011;1872;51.406;6.856;2023-09-19T05:03:16;6.03;;;3.50;;
3712;SDS011;1872;51.406;6.856;2023-09-19T05:05:42;8.97;;;3.50;;
3712;SDS011;1872;51.406;6.856;2023-09-19T05:08:08;3.67;;;3.20;;
3712;SDS011;1872;51.406;6.856;2023-09-19T05:10:35;6.83;;;3.00;;
3712;SDS011;1872;51.406;6.856;2023-09-19T05:13:04;7.83;;;3.40;;
3712;SDS011;1872;51.406;6.856;2023-09-19T05:15:30;6.27;;;3.13;;
3712;SDS011;1872;51.406;6.856;2023-09-19T05:17:56;6.17;;;3.17;;
3712;SDS011;1872;51.406;6.856;2023-09-19T05:20:22;4.20;;;3.20;;
3712;SDS011;1872;51.406;6.856;2023-09-19T05:25:26;7.13;;;3.67;;
3712;SDS011;1872;51.406;6.856;2023-09-19T05:27:54;6.23;;;2.93;;
3712;SDS011;1872;51.406;6.856;2023-09-19T05:30:28;9.10;;;4.20;;
3712;SDS011;1872;51.406;6.856;2023-09-19T05:32:54;5.53;;;3.07;;
3712;SDS011;1872;51.406;6.856;2023-09-19T05:35:21;5.63;;;3.40;;
3712;SDS011;1872;51.406;6.856;2023-09-19T05:37:48;6.50;;;3.53;;
3712;SDS011;1872;51.406;6.856;2023-09-19T05:40:19;7.73;;;3.47;;
3712;SDS011;1872;51.406;6.856;2023-09-19T05:42:46;5.93;;;3.20;;
3712;SDS011;1872;51.406;6.856;2023-09-19T05:45:12;4.53;;;3.40;;
3712;SDS011;1872;51.406;6.856;2023-09-19T05:47:39;3.97;;;3.07;;
3712;SDS011;1872;51.406;6.856;2023-09-19T05:50:10;7.80;;;3.40;;
3712;SDS011;1872;51.406;6.856;2023-09-19T05:52:36;5.73;;;3.33;;
3712;SDS011;1872;51.406;6.856;2023-09-19T05:55:06;7.70;;;3.27;;
3712;SDS011;1872;51.406;6.856;2023-09-19T05:57:35;6.20;;;3.40;;
3712;SDS011;1872;51.406;6.856;2023-09-19T06:00:06;7.60;;;3.20;;
3712;SDS011;1872;51.406;6.856;2023-09-19T06:02:36;5.90;;;3.80;;
3712;SDS011;1872;51.406;6.856;2023-09-19T06:05:03;8.30;;;3.80;;
3712;SDS011;1872;51.406;6.856;2023-09-19T06:07:31;4.53;;;3.10;;
3712;SDS011;1872;51.406;6.856;2023-09-19T06:10:05;6.30;;;2.83;;
3712;SDS011;1872;51.406;6.856;2023-09-19T06:12:32;3.20;;;2.77;;
3712;SDS011;1872;51.406;6.856;2023-09-19T06:15:02;8.00;;;3.40;;
3712;SDS011;1872;51.406;6.856;2023-09-19T06:17:30;6.77;;;3.50;;
3712;SDS011;1872;51.406;6.856;2023-09-19T06:19:56;10.30;;;3.30;;
3712;SDS011;1872;51.406;6.856;2023-09-19T06:22:22;6.93;;;3.23;;
3712;SDS011;1872;51.406;6.856;2023-09-19T06:24:49;7.37;;;3.00;;
3712;SDS011;1872;51.406;6.856;2023-09-19T06:27:15;4.80;;;3.07;;
3712;SDS011;1872;51.406;6.856;2023-09-19T06:29:40;5.17;;;2.90;;
3712;SDS011;1872;51.406;6.856;2023-09-19T06:32:07;7.33;;;2.97;;
3712;SDS011;1872;51.406;6.856;2023-09-19T06:34:36;6.30;;;3.13;;
3712;SDS011;1872;51.406;6.856;2023-09-19T06:37:03;7.77;;;3.33;;
3712;SDS011;1872;51.406;6.856;2023-09-19T06:39:31;4.80;;;3.40;;
3712;SDS011;1872;51.406;6.856;2023-09-19T06:41:56;4.17;;;2.60;;
3712;SDS011;1872;51.406;6.856;2023-09-19T06:44:23;4.90;;;3.07;;
3712;SDS011;1872;51.406;6.856;2023-09-19T06:46:49;5.20;;;3.33;;
3712;SDS011;1872;51.406;6.856;2023-09-19T06:49:16;7.03;;;2.80;;
3712;SDS011;1872;51.406;6.856;2023-09-19T06:51:42;5.83;;;3.30;;
3712;SDS011;1872;51.406;6.856;2023-09-19T06:54:09;4.10;;;3.07;;
3712;SDS011;1872;51.406;6.856;2023-09-19T06:56:35;5.67;;;3.20;;
3712;SDS011;1872;51.406;6.856;2023-09-19T06:59:00;6.10;;;3.43;;
3712;SDS011;1872;51.406;6.856;2023-09-19T07:01:27;4.83;;;2.90;;
3712;SDS011;1872;51.406;6.856;2023-09-19T07:03:53;5.27;;;2.43;;
3712;SDS011;1872;51.406;6.856;2023-09-19T07:06:19;6.17;;;3.37;;
3712;SDS011;1872;51.406;6.856;2023-09-19T07:08:45;7.03;;;2.70;;
3712;SDS011;1872;51.406;6.856;2023-09-19T07:11:10;5.43;;;2.50;;
3712;SDS011;1872;51.406;6.856;2023-09-19T07:13:37;5.30;;;2.97;;
3712;SDS011;1872;51.406;6.856;2023-09-19T07:16:04;3.50;;;3.07;;
3712;SDS011;1872;51.406;6.856;2023-09-19T07:18:29;5.60;;;3.20;;
3712;SDS011;1872;51.406;6.856;2023-09-19T07:20:58;7.13;;;3.33;;
3712;SDS011;1872;51.406;6.856;2023-09-19T07:23:29;7.13;;;2.90;;
3712;SDS011;1872;51.406;6.856;2023-09-19T07:25:59;7.00;;;3.40;;
3712;SDS011;1872;51.406;6.856;2023-09-19T07:28:25;5.20;;;2.80;;
3712;SDS011;1872;51.406;6.856;2023-09-19T07:30:51;5.13;;;2.67;;
3712;SDS011;1872;51.406;6.856;2023-09-19T07:33:17;5.03;;;2.93;;
3712;SDS011;1872;51.406;6.856;2023-09-19T07:35:46;5.80;;;3.20;;
3712;SDS011;1872;51.406;6.856;2023-09-19T07:38:13;10.73;;;4.20;;
3712;SDS011;1872;51.406;6.856;2023-09-19T07:40:39;6.53;;;3.10;;
3712;SDS011;1872;51.406;6.856;2023-09-19T07:43:05;6.97;;;3.57;;
3712;SDS011;1872;51.406;6.856;2023-09-19T07:45:31;4.63;;;3.03;;
3712;SDS011;1872;51.406;6.856;2023-09-19T07:47:57;6.70;;;3.47;;
3712;SDS011;1872;51.406;6.856;2023-09-19T07:50:23;9.57;;;4.30;;
3712;SDS011;1872;51.406;6.856;2023-09-19T07:52:51;9.53;;;3.60;;
3712;SDS011;1872;51.406;6.856;2023-09-19T07:55:18;7.57;;;2.83;;
3712;SDS011;1872;51.406;6.856;2023-09-19T07:57:48;6.83;;;3.27;;
3712;SDS011;1872;51.406;6.856;2023-09-19T08:00:14;4.10;;;2.80;;
3712;SDS011;1872;51.406;6.856;2023-09-19T08:02:40;5.10;;;2.67;;
3712;SDS011;1872;51.406;6.856;2023-09-19T08:05:06;7.97;;;3.60;;
3712;SDS011;1872;51.406;6.856;2023-09-19T08:07:39;7.23;;;3.53;;
3712;SDS011;1872;51.406;6.856;2023-09-19T08:10:07;6.60;;;3.10;;
3712;SDS011;1872;51.406;6.856;2023-09-19T08:12:36;3.70;;;3.23;;
3712;SDS011;1872;51.406;6.856;2023-09-19T08:15:03;5.67;;;3.23;;
3712;SDS011;1872;51.406;6.856;2023-09-19T08:17:29;7.97;;;3.00;;
3712;SDS011;1872;51.406;6.856;2023-09-19T08:19:59;8.67;;;3.47;;
3712;SDS011;1872;51.406;6.856;2023-09-19T08:22:26;2.63;;;2.30;;
3712;SDS011;1872;51.406;6.856;2023-09-19T08:24:52;5.50;;;3.40;;
3712;SDS011;1872;51.406;6.856;2023-09-19T08:27:18;5.03;;;2.80;;
3712;SDS011;1872;51.406;6.856;2023-09-19T08:29:44;5.13;;;3.10;;
3712;SDS011;1872;51.406;6.856;2023-09-19T08:32:12;8.23;;;4.40;;
3712;SDS011;1872;51.406;6.856;2023-09-19T08:34:37;6.67;;;4.07;;
3712;SDS011;1872;51.406;6.856;2023-09-19T08:37:03;5.07;;;3.47;;
3712;SDS011;1872;51.406;6.856;2023-09-19T08:39:29;6.83;;;3.30;;
3712;SDS011;1872;51.406;6.856;2023-09-19T08:41:58;4.83;;;2.67;;
3712;SDS011;1872;51.406;6.856;2023-09-19T08:44:25;4.57;;;3.03;;
3712;SDS011;1872;51.406;6.856;2023-09-19T08:46:55;6.93;;;3.23;;
3712;SDS011;1872;51.406;6.856;2023-09-19T08:49:36;4.00;;;2.80;;
3712;SDS011;1872;51.406;6.856;2023-09-19T08:55:06;3.10;;;2.47;;
3712;SDS011;1872;51.406;6.856;2023-09-19T08:57:36;9.07;;;3.30;;
3712;SDS011;1872;51.406;6.856;2023-09-19T09:00:06;4.90;;;2.47;;
3712;SDS011;1872;51.406;6.856;2023-09-19T09:02:37;4.67;;;2.40;;
3712;SDS011;1872;51.406;6.856;2023-09-19T09:05:08;3.10;;;2.20;;
3712;SDS011;1872;51.406;6.856;2023-09-19T09:07:36;6.07;;;4.20;;
3712;SDS011;1872;51.406;6.856;2023-09-19T09:10:12;5.47;;;2.40;;
3712;SDS011;1872;51.406;6.856;2023-09-19T09:12:38;9.57;;;3.70;;
3712;SDS011;1872;51.406;6.856;2023-09-19T09:15:06;9.83;;;3.10;;
3712;SDS011;1872;51.406;6.856;2023-09-19T09:17:33;5.73;;;2.63;;
3712;SDS011;1872;51.406;6.856;2023-09-19T09:19:59;7.30;;;3.20;;
3712;SDS011;1872;51.406;6.856;2023-09-19T09:22:25;4.90;;;2.50;;
3712;SDS011;1872;51.406;6.856;2023-09-19T09:24:55;6.63;;;3.30;;
3712;SDS011;1872;51.406;6.856;2023-09-19T09:27:26;3.87;;;3.00;;
3712;SDS011;1872;51.406;6.856;2023-09-19T09:29:52;4.03;;;2.13;;
3712;SDS011;1872;51.406;6.856;2023-09-19T09:34:51;9.20;;;3.33;;
3712;SDS011;1872;51.406;6.856;2023-09-19T09:37:18;3.57;;;2.83;;
3712;SDS011;1872;51.406;6.856;2023-09-19T09:39:52;7.07;;;3.13;;
3712;SDS011;1872;51.406;6.856;2023-09-19T09:42:35;6.27;;;2.73;;
3712;SDS011;1872;51.406;6.856;2023-09-19T09:45:13;8.17;;;3.40;;
3712;SDS011;1872;51.406;6.856;2023-09-19T09:47:48;6.03;;;3.43;;
3712;SDS011;1872;51.406;6.856;2023-09-19T09:50:32;5.40;;;3.70;;
3712;SDS011;1872;51.406;6.856;2023-09-19T10:01:13;5.50;;;2.90;;
3712;SDS011;1872;51.406;6.856;2023-09-19T10:03:41;6.43;;;3.70;;
3712;SDS011;1872;51.406;6.856;2023-09-19T10:06:13;6.00;;;3.00;;
3712;SDS011;1872;51.406;6.856;2023-09-19T10:08:59;4.90;;;2.83;;
3712;SDS011;1872;51.406;6.856;2023-09-19T10:11:42;4.07;;;2.57;;
3712;SDS011;1872;51.406;6.856;2023-09-19T10:14:13;4.27;;;2.87;;
3712;SDS011;1872;51.406;6.856;2023-09-19T10:16:45;7.50;;;3.57;;
3712;SDS011;1872;51.406;6.856;2023-09-19T10:19:16;4.40;;;2.93;;
3712;SDS011;1872;51.406;6.856;2023-09-19T10:21:49;7.40;;;2.70;;
3712;SDS011;1872;51.406;6.856;2023-09-19T10:24:16;6.80;;;3.17;;
3712;SDS011;1872;51.406;6.856;2023-09-19T10:26:43;6.70;;;2.90;;
3712;SDS011;1872;51.406;6.856;2023-09-19T10:29:11;7.13;;;3.03;;
3712;SDS011;1872;51.406;6.856;2023-09-19T10:31:40;7.90;;;3.30;;
3712;SDS011;1872;51.406;6.856;2023-09-19T10:34:12;6.73;;;3.30;;
3712;SDS011;1872;51.406;6.856;2023-09-19T10:36:40;8.33;;;3.27;;
3712;SDS011;1872;51.406;6.856;2023-09-19T10:39:10;6.13;;;3.30;;
3712;SDS011;1872;51.406;6.856;2023-09-19T10:41:38;7.13;;;2.70;;
3712;SDS011;1872;51.406;6.856;2023-09-19T10:44:05;5.13;;;2.60;;
3712;SDS011;1872;51.406;6.856;2023-09-19T10:46:34;4.80;;;2.30;;
3712;SDS011;1872;51.406;6.856;2023-09-19T10:49:00;6.50;;;2.90;;
3712;SDS011;1872;51.406;6.856;2023-09-19T10:51:28;4.50;;;2.90;;
3712;SDS011;1872;51.406;6.856;2023-09-19T10:54:10;6.30;;;3.07;;
3712;SDS011;1872;51.406;6.856;2023-09-19T10:56:48;6.80;;;3.07;;
3712;SDS011;1872;51.406;6.856;2023-09-19T10:59:17;4.13;;;3.00;;
3712;SDS011;1872;51.406;6.856;2023-09-19T11:09:46;8.57;;;3.33;;
3712;SDS011;1872;51.406;6.856;2023-09-19T11:12:57;7.37;;;3.63;;
3712;SDS011;1872;51.406;6.856;2023-09-19T11:15:06;4.50;;;3.13;;
3712;SDS011;1872;51.406;6.856;2023-09-19T11:17:42;5.17;;;3.20;;
3712;SDS011;1872;51.406;6.856;2023-09-19T11:30:45;3.53;;;2.37;;
3712;SDS011;1872;51.406;6.856;2023-09-19T11:33:17;4.57;;;2.90;;
3712;SDS011;1872;51.406;6.856;2023-09-19T11:43:45;5.13;;;3.43;;
3712;SDS011;1872;51.406;6.856;2023-09-19T11:46:12;3.73;;;2.60;;
3712;SDS011;1872;51.406;6.856;2023-09-19T11:48:41;8.53;;;3.17;;
3712;SDS011;1872;51.406;6.856;2023-09-19T11:51:37;3.87;;;2.90;;
3712;SDS011;1872;51.406;6.856;2023-09-19T11:54:04;5.17;;;3.07;;
3712;SDS011;1872;51.406;6.856;2023-09-19T11:56:43;6.17;;;3.00;;
3712;SDS011;1872;51.406;6.856;2023-09-19T11:59:10;3.40;;;2.30;;
3712;SDS011;1872;51.406;6.856;2023-09-19T12:01:38;5.57;;;3.33;;
3712;SDS011;1872;51.406;6.856;2023-09-19T12:04:15;6.90;;;2.70;;
3712;SDS011;1872;51.406;6.856;2023-09-19T12:06:43;7.00;;;2.93;;
3712;SDS011;1872;51.406;6.856;2023-09-19T12:09:21;4.50;;;2.83;;
3712;SDS011;1872;51.406;6.856;2023-09-19T12:11:47;6.10;;;2.87;;
3712;SDS011;1872;51.406;6.856;2023-09-19T12:14:24;7.43;;;3.43;;
3712;SDS011;1872;51.406;6.856;2023-09-19T12:16:55;6.23;;;3.10;;
3712;SDS011;1872;51.406;6.856;2023-09-19T12:19:21;3.67;;;2.83;;
3712;SDS011;1872;51.406;6.856;2023-09-19T12:22:01;4.80;;;2.93;;
3712;SDS011;1872;51.406;6.856;2023-09-19T12:24:31;6.03;;;2.80;;
3712;SDS011;1872;51.406;6.856;2023-09-19T12:27:01;4.33;;;2.43;;
3712;SDS011;1872;51.406;6.856;2023-09-19T12:29:30;3.73;;;2.30;;
3712;SDS011;1872;51.406;6.856;2023-09-19T12:31:58;3.40;;;2.40;;
3712;SDS011;1872;51.406;6.856;2023-09-19T12:34:28;3.67;;;2.53;;
3712;SDS011;1872;51.406;6.856;2023-09-19T12:37:06;4.20;;;2.43;;
3712;SDS011;1872;51.406;6.856;2023-09-19T12:39:42;5.33;;;2.50;;
3712;SDS011;1872;51.406;6.856;2023-09-19T12:42:10;7.30;;;3.23;;
3712;SDS011;1872;51.406;6.856;2023-09-19T12:44:42;5.70;;;3.10;;
3712;SDS011;1872;51.406;6.856;2023-09-19T12:47:19;5.30;;;2.80;;
3712;SDS011;1872;51.406;6.856;2023-09-19T12:52:36;4.63;;;2.73;;
3712;SDS011;1872;51.406;6.856;2023-09-19T12:55:02;7.07;;;2.63;;
3712;SDS011;1872;51.406;6.856;2023-09-19T12:57:30;5.33;;;2.20;;
3712;SDS011;1872;51.406;6.856;2023-09-19T13:00:00;6.63;;;3.17;;
3712;SDS011;1872;51.406;6.856;2023-09-19T13:02:36;4.70;;;2.53;;
3712;SDS011;1872;51.406;6.856;2023-09-19T13:05:02;3.40;;;2.60;;
3712;SDS011;1872;51.406;6.856;2023-09-19T13:07:44;4.10;;;2.13;;
3712;SDS011;1872;51.406;6.856;2023-09-19T13:10:12;4.27;;;2.20;;
3712;SDS011;1872;51.406;6.856;2023-09-19T13:12:40;2.80;;;2.20;;
3712;SDS011;1872;51.406;6.856;2023-09-19T13:15:10;4.73;;;2.33;;
3712;SDS011;1872;51.406;6.856;2023-09-19T13:17:45;4.30;;;2.47;;
3712;SDS011;1872;51.406;6.856;2023-09-19T13:20:24;6.73;;;2.50;;
3712;SDS011;1872;51.406;6.856;2023-09-19T13:22:54;4.50;;;2.30;;
3712;SDS011;1872;51.406;6.856;2023-09-19T13:25:23;4.40;;;2.33;;
3712;SDS011;1872;51.406;6.856;2023-09-19T13:27:51;2.70;;;2.47;;
3712;SDS011;1872;51.406;6.856;2023-09-19T13:30:17;4.20;;;2.50;;
3712;SDS011;1872;51.406;6.856;2023-09-19T13:32:44;6.60;;;2.30;;
3712;SDS011;1872;51.406;6.856;2023-09-19T13:35:13;2.57;;;1.80;;
3712;SDS011;1872;51.406;6.856;2023-09-19T13:37:43;3.73;;;2.40;;
3712;SDS011;1872;51.406;6.856;2023-09-19T13:40:14;4.23;;;2.73;;
3712;SDS011;1872;51.406;6.856;2023-09-19T13:42:41;4.67;;;2.70;;
3712;SDS011;1872;51.406;6.856;2023-09-19T13:45:07;9.23;;;3.10;;
3712;SDS011;1872;51.406;6.856;2023-09-19T13:47:37;3.43;;;2.30;;
3712;SDS011;1872;51.406;6.856;2023-09-19T13:50:04;4.50;;;2.40;;
3712;SDS011;1872;51.406;6.856;2023-09-19T13:55:18;3.83;;;3.17;;
3712;SDS011;1872;51.406;6.856;2023-09-19T13:57:46;4.90;;;2.70;;
3712;SDS011;1872;51.406;6.856;2023-09-19T14:00:15;2.30;;;2.13;;
3712;SDS011;1872;51.406;6.856;2023-09-19T14:02:41;3.30;;;2.23;;
3712;SDS011;1872;51.406;6.856;2023-09-19T14:05:10;5.60;;;2.30;;
3712;SDS011;1872;51.406;6.856;2023-09-19T14:07:40;5.93;;;2.30;;
3712;SDS011;1872;51.406;6.856;2023-09-19T14:10:06;5.53;;;2.40;;
3712;SDS011;1872;51.406;6.856;2023-09-19T14:12:36;2.97;;;1.70;;
3712;SDS011;1872;51.406;6.856;2023-09-19T14:15:02;3.20;;;2.10;;
3712;SDS011;1872;51.406;6.856;2023-09-19T14:17:29;2.87;;;1.80;;
3712;SDS011;1872;51.406;6.856;2023-09-19T14:19:54;3.47;;;2.03;;
3712;SDS011;1872;51.406;6.856;2023-09-19T14:22:21;3.30;;;2.20;;
3712;SDS011;1872;51.406;6.856;2023-09-19T14:24:47;5.07;;;2.20;;
3712;SDS011;1872;51.406;6.856;2023-09-19T14:27:13;4.50;;;2.10;;
3712;SDS011;1872;51.406;6.856;2023-09-19T14:29:39;2.80;;;2.10;;
3712;SDS011;1872;51.406;6.856;2023-09-19T14:32:07;3.10;;;1.80;;
3712;SDS011;1872;51.406;6.856;2023-09-19T14:34:33;2.60;;;1.90;;
3712;SDS011;1872;51.406;6.856;2023-09-19T14:36:59;3.00;;;1.60;;
3712;SDS011;1872;51.406;6.856;2023-09-19T14:39:24;2.63;;;1.93;;
3712;SDS011;1872;51.406;6.856;2023-09-19T14:41:50;5.50;;;2.87;;
3712;SDS011;1872;51.406;6.856;2023-09-19T14:44:16;1.83;;;1.63;;
3712;SDS011;1872;51.406;6.856;2023-09-19T14:46:42;3.10;;;1.67;;
3712;SDS011;1872;51.406;6.856;2023-09-19T14:49:11;1.63;;;1.53;;
3712;SDS011;1872;51.406;6.856;2023-09-19T14:51:40;2.77;;;1.80;;
3712;SDS011;1872;51.406;6.856;2023-09-19T14:54:07;3.30;;;2.20;;
3712;SDS011;1872;51.406;6.856;2023-09-19T14:56:33;1.60;;;1.50;;
3712;SDS011;1872;51.406;6.856;2023-09-19T14:58:59;3.53;;;1.97;;
3712;SDS011;1872;51.406;6.856;2023-09-19T15:01:25;2.27;;;1.70;;
3712;SDS011;1872;51.406;6.856;2023-09-19T15:03:50;2.87;;;1.97;;
3712;SDS011;1872;51.406;6.856;2023-09-19T15:06:16;2.90;;;1.73;;
3712;SDS011;1872;51.406;6.856;2023-09-19T15:08:44;1.70;;;1.60;;
3712;SDS011;1872;51.406;6.856;2023-09-19T15:11:13;1.70;;;1.60;;
3712;SDS011;1872;51.406;6.856;2023-09-19T15:13:41;1.80;;;1.63;;
3712;SDS011;1872;51.406;6.856;2023-09-19T15:16:07;2.27;;;1.67;;
3712;SDS011;1872;51.406;6.856;2023-09-19T15:18:34;4.47;;;1.93;;
3712;SDS011;1872;51.406;6.856;2023-09-19T15:21:12;3.50;;;2.10;;
3712;SDS011;1872;51.406;6.856;2023-09-19T15:23:38;5.33;;;1.87;;
3712;SDS011;1872;51.406;6.856;2023-09-19T15:26:05;2.60;;;1.70;;
3712;SDS011;1872;51.406;6.856;2023-09-19T15:28:39;3.20;;;1.60;;
3712;SDS011;1872;51.406;6.856;2023-09-19T15:31:05;1.67;;;1.57;;
3712;SDS011;1872;51.406;6.856;2023-09-19T15:33:33;5.00;;;2.10;;
3712;SDS011;1872;51.406;6.856;2023-09-19T15:36:02;1.80;;;1.67;;
3712;SDS011;1872;51.406;6.856;2023-09-19T15:41:25;2.00;;;1.60;;
3712;SDS011;1872;51.406;6.856;2023-09-19T15:44:02;2.40;;;2.30;;
3712;SDS011;1872;51.406;6.856;2023-09-19T15:46:32;1.83;;;1.30;;
3712;SDS011;1872;51.406;6.856;2023-09-19T15:49:00;1.50;;;1.40;;
3712;SDS011;1872;51.406;6.856;2023-09-19T15:51:27;3.20;;;1.53;;
3712;SDS011;1872;51.406;6.856;2023-09-19T15:53:53;2.53;;;1.60;;
3712;SDS011;1872;51.406;6.856;2023-09-19T15:56:20;3.20;;;1.90;;
3712;SDS011;1872;51.406;6.856;2023-09-19T15:58:48;2.60;;;1.87;;
3712;SDS011;1872;51.406;6.856;2023-09-19T16:01:15;2.87;;;1.50;;
3712;SDS011;1872;51.406;6.856;2023-09-19T16:03:43;1.80;;;1.47;;
3712;SDS011;1872;51.406;6.856;2023-09-19T16:06:10;1.80;;;1.70;;
3712;SDS011;1872;51.406;6.856;2023-09-19T16:08:41;2.40;;;1.80;;
3712;SDS011;1872;51.406;6.856;2023-09-19T16:11:07;1.87;;;1.50;;
3712;SDS011;1872;51.406;6.856;2023-09-19T16:13:34;5.67;;;1.80;;
3712;SDS011;1872;51.406;6.856;2023-09-19T16:16:00;2.43;;;1.90;;
3712;SDS011;1872;51.406;6.856;2023-09-19T16:18:25;3.20;;;1.63;;
3712;SDS011;1872;51.406;6.856;2023-09-19T16:20:51;1.33;;;1.23;;
3712;SDS011;1872;51.406;6.856;2023-09-19T16:23:17;3.00;;;2.37;;
3712;SDS011;1872;51.406;6.856;2023-09-19T16:25:43;2.00;;;1.67;;
3712;SDS011;1872;51.406;6.856;2023-09-19T16:28:10;3.83;;;1.80;;